Butte, MT

2:47 PM MDT on August 30, 2016 (GMT -0600)
Mooney | | Change Station
Active Advisory: Fire Weather Warning Active Notice: Record Report

Elev 5545 ft 45.95 °N, 112.50 °W | Updated 54 minutes ago

Haze
Haze
83 °F
Feels Like 83 °F
N
0
Wind Variable Wind from North

Today
High -- | Low -- °F
--% Chance of Precip.
Yesterday
High -- | Low -- °F
Precip. -- in
Pressure 30.01 in
Visibility 5.0 miles
Clouds Clear
Dew Point 30 °F
Humidity 15%
Rainfall 0.00 in
Snow Depth Not available.
6:49 AM 8:10 PM
Waning Crescent, 2% visible
METAR KBTM 301953Z AUTO 00000KT 5SM HZ CLR 28/M01 A3019 RMK AO2 SLP162 T02831011
Pressure 30.01 in
Visibility 5.0 miles
Clouds Clear
Dew Point 30 °F
Humidity 15%
Rainfall 0.00 in
Snow Depth Not available.
6:49 AM 8:10 PM
Waning Crescent, 2% visible
METAR KBTM 301953Z AUTO 00000KT 5SM HZ CLR 28/M01 A3019 RMK AO2 SLP162 T02831011

10-Day Weather Forecast

Almanac

Astronomy

Aug. 30, 2016 Rise Set
Actual Time
Civil Twilight
Nautical Twilight
Astronomical Twilight
Moon
Length of Visible Light
Length of Day
Tomorrow will be .
, % of the Moon is Illuminated

Today's Extremes

State Highs State Lows

Community

WunderPhotos

Upload Photos

1,935,889 photos uploaded!

WunderBlog® & News

Nearby

Air Quality

  Air Quality AQ Index Pollutant
Not available.

Snow Depth

Station Depth Elevation

Earthquake Activity

City Distance Mag. Time & Date
Minimum magnitude displayed is 2.5.

Coastal Water Temperatures

Place Temperature

Stations

Nearby Weather Stations

Station Location Temp. Windchill Dew Point Humidity Wind Precip. Elev Updated Type
                   

Watches & Warnings

Fire Weather Warning
Issued: 8:48 AM MDT Aug. 30, 2016 – National Weather Service

... Red flag warning in effect from 3 PM this afternoon to
midnight MDT tonight...

* affected area:
   fire zone 104 (kootenai).
   Fire zone 105 (flathead/Glacier park).
   Fire zone 106 (west lolo).
   Fire zone 107 (salish and Kootenai reservation).
   Fire zone 108 (east lolo).

* A line of showers with embedded thunderstorms will track from
south to north this afternoon creating strong gusty winds. The
highest wind gusts will be associated with this line of showers.

* Winds: southerly winds 20 to 30 mph with gusts ranging from 35
to 55 mph. Erratic winds are possible near thunderstorms and
complex terrain.

* Minimum humidities: 10 to 15 percent at lower elevations. 16 to
25 percent at higher elevations.